Time;durP1;ratioP1;P1;durP2;ratioP2;P2;SDS_P1;SDS_P2;PMS_P1;PMS_P2;Temp;Humidity;BMP_temperature;BMP_pressure;BME280_temperature;BME280_humidity;BME280_pressure;Samples;Min_cycle;Max_cycle;Signal;HPM_P1;HPM_P2
2024/03/17 00:00:28;;;;;;;;;;;;;;;6.23;74.81;96701.81;7395626;19;984;-64
2024/03/17 00:02:54;;;;;;;;;;;;;;;6.25;74.78;96706.09;7395182;19;1076;-66
2024/03/17 00:05:23;;;;;;;;;;;;;;;6.24;75.42;96699.19;7393975;19;1122;-70
2024/03/17 00:07:49;;;;;;;;;;;;;;;6.22;75.07;96697.47;7395148;19;1085;-69
2024/03/17 00:10:20;;;;;;;;;;;;;;;6.21;75.44;96698.38;7393244;19;1227;-72
2024/03/17 00:12:46;;;;;;;;;;;;;;;6.16;75.79;96696.72;7394240;19;1837;-66
2024/03/17 00:15:14;;;;;;;;;;;;;;;6.20;75.74;96702.69;7394809;19;1103;-70
2024/03/17 00:17:40;;;;;;;;;;;;;;;6.23;75.30;96702.66;7394788;19;1056;-64
2024/03/17 00:20:18;;;;;;;;;;;;;;;6.23;75.00;96699.22;7395150;19;1025;-65
2024/03/17 00:22:44;;;;;;;;;;;;;;;6.20;74.48;96705.28;7394658;19;1021;-70
2024/03/17 00:25:13;;;;;;;;;;;;;;;6.15;74.16;96691.53;7392767;19;1096;-64
2024/03/17 00:27:43;;;;;;;;;;;;;;;6.11;74.53;96693.31;7394529;19;1077;-72
2024/03/17 00:30:12;;;;;;;;;;;;;;;5.88;75.27;96698.91;7394484;19;925;-71
2024/03/17 00:32:38;;;;;;;;;;;;;;;5.77;75.56;96699.94;7393534;19;1916;-66
2024/03/17 00:35:07;;;;;;;;;;;;;;;5.78;75.19;96695.63;7392569;19;1181;-71
2024/03/17 00:37:33;;;;;;;;;;;;;;;5.73;74.89;96700.00;7394687;19;1040;-68
2024/03/17 00:40:02;;;;;;;;;;;;;;;5.64;75.02;96699.28;7394171;19;1131;-69
2024/03/17 00:42:28;;;;;;;;;;;;;;;5.61;74.60;96690.69;7394048;19;1147;-69
2024/03/17 00:44:59;;;;;;;;;;;;;;;5.62;74.48;96693.25;7394178;19;1060;-70
2024/03/17 00:47:25;;;;;;;;;;;;;;;5.64;74.33;96696.69;7394060;19;1337;-67
2024/03/17 00:49:54;;;;;;;;;;;;;;;5.64;73.96;96694.09;7393981;19;1865;-72
2024/03/17 00:52:19;;;;;;;;;;;;;;;5.63;74.38;96684.56;7392953;19;1842;-73
2024/03/17 00:54:49;;;;;;;;;;;;;;;5.57;74.68;96695.06;7394128;19;1009;-69
2024/03/17 00:57:15;;;;;;;;;;;;;;;5.57;74.62;96692.47;7394123;19;1016;-68
2024/03/17 00:59:44;;;;;;;;;;;;;;;5.57;73.90;96688.13;7394110;19;1036;-69
2024/03/17 01:02:12;;;;;;;;;;;;;;;5.32;74.01;96690.22;7393605;19;923;-72
2024/03/17 01:04:42;;;;;;;;;;;;;;;5.21;74.68;96687.78;7393630;19;1021;-67
2024/03/17 01:07:08;;;;;;;;;;;;;;;5.18;75.05;96680.91;7393487;19;1856;-72
2024/03/17 01:09:36;;;;;;;;;;;;;;;5.18;74.91;96683.50;7397529;19;1140;-69
2024/03/17 01:12:02;;;;;;;;;;;;;;;5.21;74.42;96684.34;7397952;19;1851;-69
2024/03/17 01:14:30;;;;;;;;;;;;;;;5.18;73.52;96677.47;7400924;19;1140;-67
2024/03/17 01:16:57;;;;;;;;;;;;;;;5.14;73.54;96686.16;7400910;19;1060;-68
2024/03/17 01:19:28;;;;;;;;;;;;;;;5.09;73.51;96688.81;7400655;19;1127;-69
2024/03/17 01:21:54;;;;;;;;;;;;;;;5.11;74.31;96683.59;7401033;19;1527;-63
2024/03/17 01:24:24;;;;;;;;;;;;;;;5.11;74.11;96686.19;7400818;19;1021;-71
2024/03/17 01:26:50;;;;;;;;;;;;;;;4.99;74.60;96675.13;7400423;19;1076;-72
2024/03/17 01:29:18;;;;;;;;;;;;;;;4.99;74.83;96674.25;7400316;19;1127;-72
2024/03/17 01:31:44;;;;;;;;;;;;;;;5.04;75.60;96669.88;7400278;19;1833;-66
2024/03/17 01:34:13;;;;;;;;;;;;;;;5.00;74.85;96666.47;7400103;19;1069;-66
2024/03/17 01:36:41;;;;;;;;;;;;;;;4.96;74.54;96669.97;7400518;19;1036;-67
2024/03/17 01:39:09;;;;;;;;;;;;;;;4.96;73.68;96677.75;7400090;19;1147;-68
2024/03/17 01:41:35;;;;;;;;;;;;;;;4.88;73.69;96667.47;7400412;19;1039;-71
2024/03/17 01:44:04;;;;;;;;;;;;;;;4.75;73.61;96671.97;7397314;19;1025;-65
2024/03/17 01:46:29;;;;;;;;;;;;;;;4.61;74.25;96668.72;7399858;19;1140;-66
2024/03/17 01:48:58;;;;;;;;;;;;;;;4.60;75.59;96661.81;7399693;19;1056;-65
2024/03/17 01:51:24;;;;;;;;;;;;;;;4.65;75.60;96663.47;7400078;19;960;-66
2024/03/17 01:53:56;;;;;;;;;;;;;;;4.73;75.96;96665.09;7397375;19;1849;-67
2024/03/17 01:56:22;;;;;;;;;;;;;;;4.78;75.50;96665.88;7399915;19;957;-67
2024/03/17 01:58:52;;;;;;;;;;;;;;;4.77;75.69;96670.25;7399313;19;1111;-72
2024/03/17 02:01:18;;;;;;;;;;;;;;;4.78;75.17;96671.94;7399736;19;933;-67
2024/03/17 02:03:46;;;;;;;;;;;;;;;4.73;75.18;96665.94;7399653;19;1024;-70
2024/03/17 02:06:12;;;;;;;;;;;;;;;4.71;75.77;96670.31;7399612;19;1005;-67
2024/03/17 02:08:50;;;;;;;;;;;;;;;4.70;75.54;96670.31;7399172;19;1143;-69
2024/03/17 02:11:26;;;;;;;;;;;;;;;4.76;76.17;96667.66;7397060;19;1103;-67
2024/03/17 02:13:55;;;;;;;;;;;;;;;4.79;76.46;96672.81;7396521;19;1838;-70
2024/03/17 02:16:21;;;;;;;;;;;;;;;4.67;76.30;96672.06;7398764;19;1179;-63
2024/03/17 02:18:49;;;;;;;;;;;;;;;4.69;76.93;96674.66;7398794;19;1103;-63
2024/03/17 02:21:15;;;;;;;;;;;;;;;4.75;77.04;96668.53;7396039;19;1159;-69
2024/03/17 02:23:47;;;;;;;;;;;;;;;4.71;76.75;96674.63;7399011;19;1007;-69
2024/03/17 02:26:13;;;;;;;;;;;;;;;4.74;76.84;96672.00;7398934;19;965;-66
2024/03/17 02:28:42;;;;;;;;;;;;;;;4.79;77.02;96670.22;7398491;19;1081;-69
2024/03/17 02:31:08;;;;;;;;;;;;;;;4.82;76.55;96665.00;7398480;19;1069;-69
2024/03/17 02:33:36;;;;;;;;;;;;;;;4.84;77.08;96668.41;7396359;19;1846;-69
2024/03/17 02:36:03;;;;;;;;;;;;;;;4.85;76.83;96658.91;7398115;19;1088;-72
2024/03/17 02:41:15;;;;;;;;;;;;;;;4.90;77.01;96657.09;7398473;19;789;-65
2024/03/17 02:43:44;;;;;;;;;;;;;;;4.97;77.36;96660.47;7398026;19;1103;-67
2024/03/17 02:46:13;;;;;;;;;;;;;;;5.00;77.05;96663.88;7397853;19;983;-66
2024/03/17 02:48:44;;;;;;;;;;;;;;;5.02;77.56;96656.94;7397935;19;1171;-67
2024/03/17 02:51:14;;;;;;;;;;;;;;;5.04;77.32;96654.31;7397800;19;1037;-67
2024/03/17 02:53:43;;;;;;;;;;;;;;;5.05;76.72;96651.72;7396025;19;1850;-70
2024/03/17 02:56:11;;;;;;;;;;;;;;;5.09;76.80;96651.66;7398092;19;1055;-69
2024/03/17 02:58:42;;;;;;;;;;;;;;;5.16;76.92;96656.75;7397935;19;1830;-69
2024/03/17 03:01:11;;;;;;;;;;;;;;;5.18;76.71;96654.97;7397467;19;1139;-66
2024/03/17 03:03:37;;;;;;;;;;;;;;;5.21;76.71;96661.00;7397266;19;1128;-66
2024/03/17 03:06:09;;;;;;;;;;;;;;;5.27;76.67;96664.34;7397471;19;1024;-69
2024/03/17 03:08:38;;;;;;;;;;;;;;;5.23;75.75;96661.81;7397144;19;1108;-69
2024/03/17 03:11:07;;;;;;;;;;;;;;;5.23;75.84;96662.69;7395601;19;1155;-69
2024/03/17 03:13:35;;;;;;;;;;;;;;;5.22;75.79;96660.13;7395934;19;1845;-67
2024/03/17 03:16:06;;;;;;;;;;;;;;;5.21;75.74;96661.84;7396840;19;1175;-65
2024/03/17 03:18:35;;;;;;;;;;;;;;;5.15;76.12;96667.16;7396782;19;1139;-69
2024/03/17 03:21:03;;;;;;;;;;;;;;;5.05;76.72;96667.28;7396950;19;1812;-68
2024/03/17 03:23:32;;;;;;;;;;;;;;;5.03;77.27;96675.97;7396998;19;953;-71
2024/03/17 03:26:02;;;;;;;;;;;;;;;5.02;78.48;96671.63;7396530;19;1305;-67
2024/03/17 03:28:33;;;;;;;;;;;;;;;5.04;77.89;96675.06;7396461;19;1040;-66
2024/03/17 03:31:02;;;;;;;;;;;;;;;5.01;77.07;96678.56;7396343;19;954;-68
2024/03/17 03:33:33;;;;;;;;;;;;;;;5.03;76.68;96675.97;7394627;19;1845;-66
2024/03/17 03:36:01;;;;;;;;;;;;;;;4.90;76.75;96664.88;7396642;19;1001;-69
2024/03/17 03:38:30;;;;;;;;;;;;;;;4.78;77.24;96671.06;7396420;19;1907;-68
2024/03/17 03:40:58;;;;;;;;;;;;;;;4.83;77.73;96673.63;7396817;19;1647;-69
2024/03/17 03:43:28;;;;;;;;;;;;;;;4.89;77.72;96674.41;7395925;19;1964;-66
2024/03/17 03:45:56;;;;;;;;;;;;;;;4.93;77.28;96670.88;7395802;19;1166;-66
2024/03/17 03:48:24;;;;;;;;;;;;;;;4.92;77.28;96671.78;7396146;19;1854;-67
2024/03/17 03:50:54;;;;;;;;;;;;;;;4.84;78.55;96676.19;7396005;19;1825;-69
2024/03/17 03:53:22;;;;;;;;;;;;;;;4.88;79.33;96677.84;7394679;19;1853;-66
2024/03/17 03:55:51;;;;;;;;;;;;;;;4.84;78.70;96678.78;7395571;19;1127;-68
2024/03/17 03:58:20;;;;;;;;;;;;;;;4.79;78.56;96670.22;7395496;19;1222;-68
2024/03/17 04:00:49;;;;;;;;;;;;;;;4.80;78.59;96672.78;7395460;19;1104;-65
2024/03/17 04:03:17;;;;;;;;;;;;;;;4.87;78.35;96680.47;7395802;19;1901;-70
2024/03/17 04:05:46;;;;;;;;;;;;;;;4.90;78.13;96681.28;7395599;19;1912;-68
2024/03/17 04:08:17;;;;;;;;;;;;;;;4.96;78.30;96682.09;7395151;19;1045;-65
2024/03/17 04:10:46;;;;;;;;;;;;;;;4.92;78.18;96689.06;7394076;19;1215;-68
2024/03/17 04:13:15;;;;;;;;;;;;;;;4.95;78.35;96688.16;7394175;19;1839;-66
2024/03/17 04:15:44;;;;;;;;;;;;;;;4.95;77.59;96685.56;7395328;19;1062;-68
2024/03/17 04:18:12;;;;;;;;;;;;;;;4.93;77.56;96689.03;7395262;19;1021;-69
2024/03/17 04:20:43;;;;;;;;;;;;;;;4.94;77.87;96689.91;7394754;19;1123;-67
2024/03/17 04:23:11;;;;;;;;;;;;;;;4.96;78.63;96689.88;7394696;19;1040;-65
2024/03/17 04:25:43;;;;;;;;;;;;;;;5.04;78.17;96695.81;7392876;19;969;-67
2024/03/17 04:28:11;;;;;;;;;;;;;;;5.03;77.08;96687.16;7394631;19;1066;-64
2024/03/17 04:30:40;;;;;;;;;;;;;;;5.05;76.64;96694.94;7394805;19;1905;-69
2024/03/17 04:33:09;;;;;;;;;;;;;;;5.06;76.37;96697.50;7394292;19;1850;-68
2024/03/17 04:35:38;;;;;;;;;;;;;;;5.05;76.16;96695.78;7394864;19;1031;-69
2024/03/17 04:38:06;;;;;;;;;;;;;;;4.97;76.33;96694.19;7395069;19;1701;-65
2024/03/17 04:40:35;;;;;;;;;;;;;;;4.96;76.56;96700.25;7394555;19;1649;-64
2024/03/17 04:43:06;;;;;;;;;;;;;;;5.03;76.54;96709.66;7394243;19;1061;-72
2024/03/17 04:45:35;;;;;;;;;;;;;;;5.06;76.09;96705.28;7401892;19;1020;-69
2024/03/17 04:48:03;;;;;;;;;;;;;;;5.08;76.29;96710.44;7402049;19;1813;-70
2024/03/17 04:50:32;;;;;;;;;;;;;;;5.12;77.92;96713.88;7401625;19;1870;-66
2024/03/17 04:53:01;;;;;;;;;;;;;;;5.20;78.46;96708.59;7401059;19;1888;-69
2024/03/17 04:55:30;;;;;;;;;;;;;;;5.13;77.96;96710.38;7401866;19;1431;-66
2024/03/17 04:57:58;;;;;;;;;;;;;;;5.08;79.12;96707.84;7401835;19;1012;-66
2024/03/17 05:00:29;;;;;;;;;;;;;;;5.20;80.09;96712.00;7402138;19;1654;-71
2024/03/17 05:02:58;;;;;;;;;;;;;;;5.37;80.20;96716.13;7401486;19;1004;-69
2024/03/17 05:05:26;;;;;;;;;;;;;;;5.49;78.85;96715.94;7401555;19;1895;-66
2024/03/17 05:07:54;;;;;;;;;;;;;;;5.57;78.06;96713.25;7401511;19;1929;-69
2024/03/17 05:10:23;;;;;;;;;;;;;;;5.65;77.49;96713.09;7400360;19;1806;-64
2024/03/17 05:12:52;;;;;;;;;;;;;;;5.73;77.42;96720.78;7400961;19;1853;-68
2024/03/17 05:15:20;;;;;;;;;;;;;;;5.81;77.33;96716.34;7401267;19;942;-64
2024/03/17 05:17:52;;;;;;;;;;;;;;;5.91;76.83;96725.69;7396498;19;1549;-69
2024/03/17 05:20:20;;;;;;;;;;;;;;;5.99;76.35;96722.94;7400587;19;1025;-70
2024/03/17 05:22:49;;;;;;;;;;;;;;;6.05;76.10;96725.47;7400642;19;1108;-66
2024/03/17 05:25:18;;;;;;;;;;;;;;;6.11;76.11;96726.25;7400930;19;977;-69
2024/03/17 05:27:47;;;;;;;;;;;;;;;6.22;75.93;96728.66;7400869;19;1091;-72
2024/03/17 05:30:13;;;;;;;;;;;;;;;6.33;76.56;96729.34;7400658;19;1823;-69
2024/03/17 05:32:41;;;;;;;;;;;;;;;6.47;76.53;96734.25;7400135;19;1850;-68
2024/03/17 05:35:12;;;;;;;;;;;;;;;6.61;76.91;96739.22;7400146;19;1009;-65
2024/03/17 05:37:41;;;;;;;;;;;;;;;6.74;76.41;96747.63;7400141;19;1147;-70
2024/03/17 05:40:13;;;;;;;;;;;;;;;6.83;76.49;96736.19;7400349;19;1804;-69
2024/03/17 05:42:44;;;;;;;;;;;;;;;6.88;76.23;96741.31;7400492;19;950;-63
2024/03/17 05:45:13;;;;;;;;;;;;;;;7.01;75.38;96744.53;7400261;19;1063;-69
2024/03/17 05:47:42;;;;;;;;;;;;;;;7.10;75.30;96741.72;7399781;19;1154;-68
2024/03/17 05:50:13;;;;;;;;;;;;;;;7.15;74.95;96741.63;7399651;19;1013;-68
2024/03/17 05:52:42;;;;;;;;;;;;;;;7.21;74.79;96746.69;7399626;19;1037;-71
2024/03/17 05:55:11;;;;;;;;;;;;;;;7.34;73.78;96739.47;7397029;19;1850;-68
2024/03/17 05:57:41;;;;;;;;;;;;;;;7.45;73.96;96747.94;7399994;19;949;-70
2024/03/17 06:00:11;;;;;;;;;;;;;;;7.63;73.22;96750.13;7399345;19;1090;-66
2024/03/17 06:02:40;;;;;;;;;;;;;;;7.72;72.96;96757.75;7399700;19;1116;-66
2024/03/17 06:05:12;;;;;;;;;;;;;;;7.86;73.43;96760.03;7399231;19;1073;-67
2024/03/17 06:07:43;;;;;;;;;;;;;;;8.01;73.30;96756.19;7399066;19;1069;-67
2024/03/17 06:10:12;;;;;;;;;;;;;;;8.00;73.92;96761.47;7398922;19;1301;-66
2024/03/17 06:12:40;;;;;;;;;;;;;;;8.08;73.73;96762.97;7399475;19;1040;-66
2024/03/17 06:15:10;;;;;;;;;;;;;;;8.22;73.10;96762.63;7397061;19;1853;-67
2024/03/17 06:17:39;;;;;;;;;;;;;;;8.40;72.85;96764.81;7399271;19;1057;-67
2024/03/17 06:20:11;;;;;;;;;;;;;;;8.51;72.17;96762.78;7398737;19;1061;-72
2024/03/17 06:22:39;;;;;;;;;;;;;;;8.61;72.27;96758.19;7398666;19;1076;-71
2024/03/17 06:25:11;;;;;;;;;;;;;;;8.65;72.51;96759.84;7398521;19;1143;-67
2024/03/17 06:27:40;;;;;;;;;;;;;;;8.75;73.16;96763.03;7398558;19;1060;-71
2024/03/17 06:30:09;;;;;;;;;;;;;;;8.83;73.81;96763.72;7398787;19;976;-67
2024/03/17 06:32:38;;;;;;;;;;;;;;;8.77;74.22;96765.63;7398289;19;1078;-67
2024/03/17 06:35:07;;;;;;;;;;;;;;;8.75;73.42;96770.00;7396626;19;1896;-69
2024/03/17 06:37:36;;;;;;;;;;;;;;;8.70;74.06;96775.38;7398838;19;1012;-69
2024/03/17 06:40:05;;;;;;;;;;;;;;;8.75;74.19;96775.22;7398513;19;959;-67
2024/03/17 06:42:36;;;;;;;;;;;;;;;8.79;73.40;96782.94;7398136;19;1088;-67
2024/03/17 06:45:05;;;;;;;;;;;;;;;8.92;72.38;96777.38;7399078;19;954;-66
2024/03/17 06:47:36;;;;;;;;;;;;;;;9.05;72.33;96777.88;7397966;19;1093;-69
2024/03/17 06:50:05;;;;;;;;;;;;;;;9.18;71.53;96778.41;7397878;19;1115;-73
2024/03/17 06:52:33;;;;;;;;;;;;;;;9.24;71.59;96780.81;7398555;19;1752;-69
2024/03/17 06:55:02;;;;;;;;;;;;;;;9.21;72.21;96779.16;7396219;19;1848;-69
2024/03/17 06:57:30;;;;;;;;;;;;;;;9.23;72.33;96774.78;7397561;19;1088;-68
2024/03/17 07:00:05;;;;;;;;;;;;;;;9.32;72.59;96784.09;7397451;19;1040;-66
2024/03/17 07:02:33;;;;;;;;;;;;;;;9.46;71.89;96783.66;7397720;19;973;-67
2024/03/17 07:05:02;;;;;;;;;;;;;;;9.56;71.16;96783.41;7397444;19;931;-70
2024/03/17 07:07:31;;;;;;;;;;;;;;;9.59;70.41;96791.16;7395815;19;1044;-71
2024/03/17 07:10:04;;;;;;;;;;;;;;;9.65;71.56;96787.50;7397023;19;1109;-71
2024/03/17 07:12:34;;;;;;;;;;;;;;;9.55;72.18;96789.53;7397016;19;1053;-68
2024/03/17 07:15:05;;;;;;;;;;;;;;;9.64;72.42;96785.78;7395277;19;1850;-71
2024/03/17 07:17:34;;;;;;;;;;;;;;;9.72;72.16;96789.88;7396875;19;1016;-69
2024/03/17 07:20:03;;;;;;;;;;;;;;;10.02;70.90;96781.13;7397033;19;1899;-71
2024/03/17 07:22:32;;;;;;;;;;;;;;;10.28;68.51;96784.66;7396718;19;1013;-69
2024/03/17 07:25:02;;;;;;;;;;;;;;;10.51;67.98;96793.53;7396531;19;1057;-69
2024/03/17 07:27:31;;;;;;;;;;;;;;;10.68;67.41;96786.84;7396605;19;1080;-67
2024/03/17 07:30:00;;;;;;;;;;;;;;;10.95;66.88;96789.41;7396915;19;961;-70
2024/03/17 07:32:31;;;;;;;;;;;;;;;11.25;64.89;96795.31;7396675;19;1815;-67
2024/03/17 07:35:00;;;;;;;;;;;;;;;11.55;62.94;96796.84;7394915;19;1841;-69
2024/03/17 07:37:28;;;;;;;;;;;;;;;11.69;62.05;96798.94;7396610;19;1032;-69
2024/03/17 07:39:57;;;;;;;;;;;;;;;11.99;61.80;96795.19;7397030;19;1764;-68
2024/03/17 07:42:25;;;;;;;;;;;;;;;12.31;60.69;96803.53;7396519;19;1032;-71
2024/03/17 07:44:54;;;;;;;;;;;;;;;12.24;61.08;96802.94;7395944;19;1127;-69
2024/03/17 07:47:23;;;;;;;;;;;;;;;12.48;60.88;96794.13;7396310;19;1922;-69
2024/03/17 07:49:54;;;;;;;;;;;;;;;12.52;60.52;96795.69;7396043;19;1820;-69
2024/03/17 07:52:23;;;;;;;;;;;;;;;12.49;61.55;96798.44;7395806;19;1040;-70
2024/03/17 07:54:51;;;;;;;;;;;;;;;12.61;61.89;96797.06;7394490;19;1853;-67
2024/03/17 07:57:20;;;;;;;;;;;;;;;12.54;59.97;96795.63;7395591;19;1083;-67
2024/03/17 07:59:52;;;;;;;;;;;;;;;12.54;60.38;96791.25;7395835;19;1814;-67
2024/03/17 08:02:21;;;;;;;;;;;;;;;12.52;59.95;96787.81;7395454;19;977;-65
2024/03/17 08:04:50;;;;;;;;;;;;;;;12.89;60.77;96783.63;7395368;19;1112;-69
2024/03/17 08:07:21;;;;;;;;;;;;;;;13.04;58.33;96786.53;7395311;19;1198;-69
2024/03/17 08:09:49;;;;;;;;;;;;;;;13.26;57.82;96782.91;7394944;19;1480;-67
2024/03/17 08:12:18;;;;;;;;;;;;;;;13.30;56.53;96786.28;7395560;19;1941;-72
2024/03/17 08:14:47;;;;;;;;;;;;;;;13.42;56.57;96783.06;7394253;19;1826;-68
2024/03/17 08:17:16;;;;;;;;;;;;;;;13.58;57.36;96785.88;7395099;19;1032;-68
2024/03/17 08:19:45;;;;;;;;;;;;;;;13.69;56.96;96787.19;7392642;19;1134;-67
2024/03/17 08:22:14;;;;;;;;;;;;;;;13.72;55.85;96785.25;7395021;19;922;-66
2024/03/17 08:24:46;;;;;;;;;;;;;;;13.90;56.38;96780.91;7394819;19;1091;-68
2024/03/17 08:27:15;;;;;;;;;;;;;;;14.27;54.48;96782.69;7394802;19;1119;-71
2024/03/17 08:29:44;;;;;;;;;;;;;;;14.32;53.22;96779.78;7395149;19;989;-66
2024/03/17 08:32:14;;;;;;;;;;;;;;;14.22;53.87;96777.63;7395431;19;1871;-67
2024/03/17 08:34:44;;;;;;;;;;;;;;;14.21;54.25;96778.53;7393659;19;1850;-70
2024/03/17 08:37:13;;;;;;;;;;;;;;;14.41;53.11;96774.09;7394364;19;1100;-69
2024/03/17 08:39:42;;;;;;;;;;;;;;;14.71;51.29;96775.25;7394366;19;1118;-64
2024/03/17 08:42:14;;;;;;;;;;;;;;;15.04;52.56;96766.56;7394576;19;1931;-66
2024/03/17 08:44:42;;;;;;;;;;;;;;;15.43;49.01;96775.06;7394276;19;941;-67
2024/03/17 08:47:11;;;;;;;;;;;;;;;15.39;50.56;96769.09;7394619;19;1032;-70
2024/03/17 08:49:40;;;;;;;;;;;;;;;15.43;49.06;96772.44;7393980;19;1210;-66
2024/03/17 08:52:09;;;;;;;;;;;;;;;15.50;51.06;96765.06;7394069;19;1040;-69
2024/03/17 08:54:38;;;;;;;;;;;;;;;15.69;48.73;96761.38;7393221;19;1861;-66
2024/03/17 08:57:07;;;;;;;;;;;;;;;15.66;49.17;96765.88;7394279;19;1815;-69
2024/03/17 08:59:38;;;;;;;;;;;;;;;15.83;49.00;96766.75;7393819;19;1033;-68
2024/03/17 09:02:07;;;;;;;;;;;;;;;16.39;47.95;96765.41;7393872;19;1151;-69
2024/03/17 09:04:36;;;;;;;;;;;;;;;16.51;47.86;96761.22;7394262;19;1005;-66
2024/03/17 09:07:05;;;;;;;;;;;;;;;16.23;47.39;96757.56;7393683;19;1040;-70
2024/03/17 09:09:33;;;;;;;;;;;;;;;16.58;46.13;96753.81;7393641;19;1236;-66
2024/03/17 09:12:03;;;;;;;;;;;;;;;16.62;44.13;96757.94;7391589;19;1346;-66
2024/03/17 09:14:33;;;;;;;;;;;;;;;16.76;44.87;96749.19;7393350;19;1842;-70
2024/03/17 09:17:04;;;;;;;;;;;;;;;16.65;45.16;96744.56;7393970;19;1064;-68
2024/03/17 09:19:33;;;;;;;;;;;;;;;16.90;44.83;96743.94;7393359;19;1045;-71
2024/03/17 09:22:02;;;;;;;;;;;;;;;16.83;46.18;96739.97;7393531;19;1815;-68
2024/03/17 09:24:31;;;;;;;;;;;;;;;17.24;45.78;96732.25;7393494;19;1826;-67
2024/03/17 09:26:59;;;;;;;;;;;;;;;17.36;44.41;96728.00;7393041;19;1025;-66
2024/03/17 09:29:28;;;;;;;;;;;;;;;17.46;44.17;96730.94;7393872;19;1928;-68
2024/03/17 09:31:57;;;;;;;;;;;;;;;17.55;43.98;96728.53;7400945;19;1036;-69
2024/03/17 09:34:28;;;;;;;;;;;;;;;17.39;43.54;96723.38;7400235;19;1857;-71
2024/03/17 09:36:57;;;;;;;;;;;;;;;17.20;44.33;96717.53;7400271;19;1188;-68
2024/03/17 09:39:26;;;;;;;;;;;;;;;16.95;44.56;96719.03;7400235;19;1127;-68
2024/03/17 09:41:55;;;;;;;;;;;;;;;16.79;44.52;96717.31;7400626;19;1029;-65
2024/03/17 09:44:24;;;;;;;;;;;;;;;16.92;43.67;96712.97;7400009;19;1355;-67
2024/03/17 09:46:52;;;;;;;;;;;;;;;17.12;41.31;96712.72;7400067;19;1088;-65
2024/03/17 09:49:21;;;;;;;;;;;;;;;17.12;41.66;96700.38;7400114;19;1823;-64
2024/03/17 09:51:55;;;;;;;;;;;;;;;17.21;41.91;96698.09;7400103;19;2091;-70
2024/03/17 09:54:23;;;;;;;;;;;;;;;17.17;43.05;96700.09;7399399;19;1838;-69
2024/03/17 09:56:52;;;;;;;;;;;;;;;16.92;44.45;96699.78;7400269;19;1650;-66
2024/03/17 09:59:21;;;;;;;;;;;;;;;16.86;43.41;96702.78;7399478;19;1111;-66
2024/03/17 10:01:49;;;;;;;;;;;;;;;16.84;43.36;96702.03;7399993;19;961;-68
2024/03/17 10:04:33;;;;;;;;;;;;;;;16.70;42.61;96705.50;7399700;19;1804;-69
2024/03/17 10:07:05;;;;;;;;;;;;;;;16.40;41.77;96703.75;7399790;19;960;-70
2024/03/17 10:09:33;;;;;;;;;;;;;;;16.18;42.65;96707.66;7398568;19;1240;-67
2024/03/17 10:12:02;;;;;;;;;;;;;;;15.64;45.26;96699.22;7399112;19;1279;-67
2024/03/17 10:14:30;;;;;;;;;;;;;;;15.61;44.17;96701.16;7399956;19;1823;-69
2024/03/17 10:16:59;;;;;;;;;;;;;;;15.51;44.76;96703.47;7402180;19;1450;-68
2024/03/17 10:19:28;;;;;;;;;;;;;;;15.47;45.69;96699.31;7398973;19;1815;-69
2024/03/17 10:22:01;;;;;;;;;;;;;;;15.36;45.63;96692.84;7398757;19;1284;-70
2024/03/17 10:24:34;;;;;;;;;;;;;;;15.23;45.98;96695.28;7399146;19;999;-68
2024/03/17 10:27:02;;;;;;;;;;;;;;;15.20;46.55;96692.81;7400150;19;1519;-68
2024/03/17 10:29:32;;;;;;;;;;;;;;;15.19;47.22;96692.91;7398744;19;1530;-66
2024/03/17 10:32:01;;;;;;;;;;;;;;;15.24;48.08;96690.88;7398550;19;1111;-71
2024/03/17 10:34:35;;;;;;;;;;;;;;;15.53;47.12;96684.00;7398196;19;2183;-68
2024/03/17 10:37:10;;;;;;;;;;;;;;;15.78;46.92;96695.78;7398267;19;1084;-68
2024/03/17 10:39:42;;;;;;;;;;;;;;;15.66;45.25;96686.78;7398540;19;977;-68
2024/03/17 10:42:11;;;;;;;;;;;;;;;15.41;46.77;96682.88;7396354;19;1050;-72
2024/03/17 10:44:41;;;;;;;;;;;;;;;15.02;46.42;96676.25;7398423;19;1612;-69
2024/03/17 10:47:12;;;;;;;;;;;;;;;14.74;46.94;96681.16;7397775;19;1135;-69
2024/03/17 10:49:41;;;;;;;;;;;;;;;14.33;48.77;96673.63;7397861;19;1033;-71
2024/03/17 10:52:10;;;;;;;;;;;;;;;14.44;48.29;96678.34;7397705;19;1100;-68
2024/03/17 10:54:41;;;;;;;;;;;;;;;14.40;48.10;96680.28;7397293;19;1841;-65
2024/03/17 10:57:17;;;;;;;;;;;;;;;14.33;48.52;96681.53;7397557;19;1120;-70
2024/03/17 10:59:50;;;;;;;;;;;;;;;14.32;48.54;96674.53;7397363;19;1525;-70
2024/03/17 11:02:23;;;;;;;;;;;;;;;14.62;50.11;96671.25;7397423;19;1060;-68
2024/03/17 11:04:53;;;;;;;;;;;;;;;14.73;48.31;96671.56;7397312;19;1029;-67
2024/03/17 11:07:22;;;;;;;;;;;;;;;14.90;47.60;96678.59;7397598;19;958;-71
2024/03/17 11:09:55;;;;;;;;;;;;;;;14.96;50.21;96660.78;7396908;19;1168;-68
2024/03/17 11:12:38;;;;;;;;;;;;;;;15.40;50.59;96657.47;7396948;19;1028;-66
2024/03/17 11:15:21;;;;;;;;;;;;;;;15.48;46.57;96667.59;7397427;19;1842;-72
2024/03/17 11:17:51;;;;;;;;;;;;;;;15.28;46.08;96661.66;7396877;19;1163;-64
2024/03/17 11:20:24;;;;;;;;;;;;;;;14.99;46.53;96658.81;7397278;19;1014;-67
2024/03/17 11:22:53;;;;;;;;;;;;;;;14.52;47.34;96658.59;7396734;19;1049;-68
2024/03/17 11:25:42;;;;;;;;;;;;;;;14.33;47.74;96653.41;7396492;19;1401;-66
2024/03/17 11:28:13;;;;;;;;;;;;;;;14.26;47.67;96655.53;7396955;19;3393;-67
2024/03/17 11:30:47;;;;;;;;;;;;;;;14.34;49.79;96649.03;7399117;19;1404;-71
2024/03/17 11:33:30;;;;;;;;;;;;;;;14.35;48.99;96653.34;7399429;19;1442;-69
2024/03/17 11:36:11;;;;;;;;;;;;;;;14.47;48.30;96649.22;7395151;19;1859;-67
2024/03/17 11:38:54;;;;;;;;;;;;;;;14.47;49.87;96641.34;7396400;19;1856;-71
2024/03/17 11:41:35;;;;;;;;;;;;;;;14.72;51.38;96629.53;7396075;19;1098;-69
2024/03/17 11:44:18;;;;;;;;;;;;;;;14.98;48.95;96632.56;7395913;19;1029;-70
2024/03/17 11:46:45;;;;;;;;;;;;;;;15.11;49.43;96630.13;7395697;19;1038;-68
2024/03/17 11:49:20;;;;;;;;;;;;;;;15.22;49.80;96634.78;7394074;19;1021;-69
2024/03/17 11:51:46;;;;;;;;;;;;;;;15.50;47.26;96631.44;7396203;19;985;-67
2024/03/17 11:54:18;;;;;;;;;;;;;;;15.45;48.49;96627.38;7395274;19;1104;-69
2024/03/17 11:56:45;;;;;;;;;;;;;;;15.43;47.52;96627.47;7394073;19;1839;-69
2024/03/17 11:59:17;;;;;;;;;;;;;;;15.31;47.73;96617.59;7395541;19;999;-66
2024/03/17 12:01:47;;;;;;;;;;;;;;;15.28;48.03;96618.63;7395522;19;1100;-67
2024/03/17 12:04:17;;;;;;;;;;;;;;;15.10;47.32;96615.22;7395272;19;1029;-70
2024/03/17 12:06:45;;;;;;;;;;;;;;;15.06;49.36;96617.19;7395247;19;1105;-67
2024/03/17 12:09:20;;;;;;;;;;;;;;;14.72;49.52;96611.94;7399744;19;1430;-71
2024/03/17 12:11:46;;;;;;;;;;;;;;;14.51;50.50;96606.88;7393811;19;1968;-71
2024/03/17 12:14:25;;;;;;;;;;;;;;;14.50;50.97;96606.97;7395085;19;1041;-65
2024/03/17 12:16:54;;;;;;;;;;;;;;;14.46;50.15;96614.19;7393896;19;1853;-68
2024/03/17 12:19:23;;;;;;;;;;;;;;;14.46;51.40;96608.06;7394901;19;1040;-70
2024/03/17 12:21:49;;;;;;;;;;;;;;;14.54;50.54;96611.13;7394878;19;1020;-66
2024/03/17 12:24:19;;;;;;;;;;;;;;;14.77;50.52;96615.19;7394824;19;1171;-72
2024/03/17 12:26:46;;;;;;;;;;;;;;;14.87;49.75;96612.09;7398212;19;1479;-66
2024/03/17 12:29:29;;;;;;;;;;;;;;;14.94;49.31;96613.44;7394698;19;1033;-67
2024/03/17 12:31:59;;;;;;;;;;;;;;;15.08;49.65;96610.03;7394687;19;1104;-68
2024/03/17 12:34:28;;;;;;;;;;;;;;;15.20;47.35;96610.31;7394658;19;961;-69
2024/03/17 12:36:55;;;;;;;;;;;;;;;15.28;48.13;96611.59;7393848;19;1841;-67
2024/03/17 12:39:25;;;;;;;;;;;;;;;15.25;47.88;96610.88;7394394;19;1041;-69
2024/03/17 12:42:05;;;;;;;;;;;;;;;15.29;48.97;96601.88;7394254;19;1339;-67
2024/03/17 12:44:33;;;;;;;;;;;;;;;15.25;47.47;96602.97;7398574;19;1574;-69
2024/03/17 12:47:03;;;;;;;;;;;;;;;15.13;46.19;96602.75;7394535;19;1921;-71
2024/03/17 12:49:32;;;;;;;;;;;;;;;15.08;46.68;96593.41;7394185;19;1045;-67
2024/03/17 12:51:59;;;;;;;;;;;;;;;15.02;47.43;96603.31;7394039;19;1029;-72
2024/03/17 12:54:28;;;;;;;;;;;;;;;14.51;49.06;96600.78;7393905;19;1033;-69
2024/03/17 13:02:30;;;;;;;;;;;;;;;14.12;50.50;96579.94;7394213;19;767;-68
2024/03/17 13:05:14;;;;;;;;;;;;;;;14.28;50.76;96576.53;7395927;19;1111;-70
2024/03/17 13:07:42;;;;;;;;;;;;;;;14.50;49.56;96575.38;7401063;19;1096;-67
2024/03/17 13:10:11;;;;;;;;;;;;;;;14.59;50.44;96564.38;7400680;19;1848;-65
2024/03/17 13:12:40;;;;;;;;;;;;;;;14.84;50.31;96564.84;7400835;19;1013;-67
2024/03/17 13:15:09;;;;;;;;;;;;;;;14.89;49.98;96562.81;7401266;19;1833;-71
2024/03/17 13:17:41;;;;;;;;;;;;;;;15.07;50.18;96563.56;7401982;19;1520;-69
2024/03/17 13:20:14;;;;;;;;;;;;;;;15.20;49.15;96568.16;7401255;19;1017;-70
2024/03/17 13:22:44;;;;;;;;;;;;;;;15.39;49.37;96560.88;7400811;19;1144;-70
2024/03/17 13:25:16;;;;;;;;;;;;;;;15.45;49.08;96562.34;7400690;19;1009;-70